»·PEaware :: UAL5897 KLAX-KSLC

UAL5897 :: KLAX-KSLC

FLIGHT INFORMATION

Flight Status: Arrived
Operator:
United Airlines
More flights by this operator :: More flights under this callsign
Pilot: Saso K. (7898)
Aircraft: BOEING 737-300
(B733)
More flights by this aircraft type
Origin: KLAX Los Angeles Intl
United States
Destination: KSLC Salt Lake City Intl
United States
More flights between these airports :: More routes between these airports
Route: LOOP9 DAG J9 MLF QWENN4
File this flight plan on PilotEdge
Remarks:
Altitude:
(Current/Filed)
37,000ft
Speed:
(Current/Filed)
422kts
Departed: 30-Dec-16 03:31 PM
Arrived: 30-Dec-16 05:03 PM
Distance/Time
Traveled:
512nm/1:32
Distance/Time
To Go:
Arrived

Flight Plot

Page will automatically refresh every two minutes.

Flight plan parsing failed; only flown route is shown


Map Options




Map Legend


Flown Route
Filed Route
Departure Airport
Arrival Airport
Navaid (VOR, NDB)
Fix

Horizontal Profiles

Position Reports

Time Latitude Longitude Heading Altitude Ground
Speed
30-Dec-16 15:05 33.942244 -118.397798 84 112ft 0kts
30-Dec-16 15:06 33.942244 -118.397798 84 112ft 0kts
30-Dec-16 15:07 33.942244 -118.397798 84 112ft 0kts
30-Dec-16 15:08 33.942244 -118.397798 84 112ft 0kts
30-Dec-16 15:09 33.942244 -118.397798 84 112ft 0kts
30-Dec-16 15:10 33.942244 -118.397798 84 112ft 0kts
30-Dec-16 15:11 33.942244 -118.397798 84 112ft 0kts
30-Dec-16 15:12 33.942244 -118.397798 84 112ft 0kts
30-Dec-16 15:13 33.942244 -118.397798 84 112ft 0kts
30-Dec-16 15:14 33.942244 -118.397798 84 112ft 0kts
30-Dec-16 15:15 33.942244 -118.397798 84 112ft 0kts
30-Dec-16 15:16 33.942244 -118.397798 84 112ft 0kts
30-Dec-16 15:17 33.942244 -118.397798 84 112ft 0kts
30-Dec-16 15:18 33.942244 -118.397798 84 112ft 0kts
30-Dec-16 15:19 33.942244 -118.397798 84 112ft 0kts
30-Dec-16 15:20 33.942244 -118.397798 84 112ft 0kts
30-Dec-16 15:21 33.942244 -118.397798 84 112ft 0kts
30-Dec-16 15:22 33.942210 -118.398217 84 112ft 2kts
30-Dec-16 15:23 33.942055 -118.398419 176 112ft 2kts
30-Dec-16 15:24 33.941464 -118.398328 174 112ft 0kts
30-Dec-16 15:25 33.941417 -118.398322 173 112ft 1kts
30-Dec-16 15:26 33.940153 -118.398223 173 112ft 8kts
30-Dec-16 15:27 33.939315 -118.394723 82 108ft 17kts
30-Dec-16 15:28 33.940010 -118.387931 84 102ft 21kts
30-Dec-16 15:29 33.940680 -118.381380 83 99ft 10kts
30-Dec-16 15:30 33.940453 -118.380256 145 99ft 7kts
30-Dec-16 15:31 33.938349 -118.394848 263 109ft 140kts
30-Dec-16 15:32 33.931486 -118.446359 251 2018ft 189kts
30-Dec-16 15:33 33.908940 -118.514728 248 4044ft 254kts
30-Dec-16 15:34 33.885440 -118.580211 232 6673ft 264kts
30-Dec-16 15:35 33.823515 -118.580376 130 9121ft 285kts
30-Dec-16 15:36 33.835189 -118.502574 33 11354ft 311kts
30-Dec-16 15:37 33.908324 -118.448615 30 13087ft 356kts
30-Dec-16 15:38 33.965280 -118.375985 55 15312ft 374kts
30-Dec-16 15:39 34.013862 -118.290147 55 17363ft 389kts
30-Dec-16 15:40 34.065522 -118.198875 55 19316ft 403kts
30-Dec-16 15:41 34.116343 -118.109055 55 21048ft 416kts
30-Dec-16 15:42 34.175537 -118.005001 55 22846ft 430kts
30-Dec-16 15:43 34.235833 -117.897918 56 24508ft 442kts
30-Dec-16 15:44 34.300698 -117.782291 56 26127ft 455kts
30-Dec-16 15:45 34.363268 -117.670397 56 27529ft 467kts
30-Dec-16 15:46 34.434487 -117.542615 56 29283ft 471kts
30-Dec-16 15:47 34.506389 -117.413132 56 31086ft 469kts
30-Dec-16 15:48 34.574084 -117.290801 57 32586ft 469kts
30-Dec-16 15:49 34.637435 -117.175934 57 33813ft 468kts
30-Dec-16 15:50 34.707479 -117.048506 57 35022ft 468kts
30-Dec-16 15:51 34.775501 -116.924314 57 35945ft 471kts
30-Dec-16 15:52 34.843098 -116.800470 56 36818ft 472kts
30-Dec-16 15:53 34.909795 -116.677849 56 37066ft 471kts
30-Dec-16 15:54 34.975447 -116.561325 46 37030ft 467kts
30-Dec-16 15:55 35.057313 -116.459959 43 37052ft 469kts
30-Dec-16 15:56 35.127425 -116.372368 43 37040ft 468kts
30-Dec-16 15:57 35.196600 -116.285395 44 37044ft 468kts
30-Dec-16 15:58 35.277169 -116.184327 44 37046ft 469kts
30-Dec-16 15:59 35.361717 -116.077919 44 37045ft 468kts
30-Dec-16 16:00 35.445363 -115.972315 44 37046ft 469kts
30-Dec-16 16:01 35.528577 -115.866919 44 37048ft 468kts
30-Dec-16 16:02 35.609592 -115.763987 44 37056ft 469kts
30-Dec-16 16:03 35.687766 -115.664420 43 37064ft 468kts
30-Dec-16 16:04 35.764030 -115.567603 46 37095ft 466kts
30-Dec-16 16:05 35.845077 -115.463662 45 37031ft 453kts
30-Dec-16 16:06 35.926091 -115.359461 45 37063ft 458kts
30-Dec-16 16:07 36.000173 -115.263887 46 37051ft 456kts
30-Dec-16 16:08 36.081050 -115.159232 46 37040ft 458kts
30-Dec-16 16:09 36.158682 -115.058978 44 37034ft 465kts
30-Dec-16 16:10 36.245170 -114.949389 44 37037ft 470kts
30-Dec-16 16:11 36.331096 -114.840125 44 37037ft 469kts
30-Dec-16 16:12 36.416347 -114.732314 44 37039ft 468kts
30-Dec-16 16:13 36.501802 -114.621210 44 37036ft 468kts
30-Dec-16 16:14 36.585625 -114.511601 44 37037ft 468kts
30-Dec-16 16:15 36.666667 -114.405288 44 37040ft 468kts
30-Dec-16 16:16 36.741447 -114.306881 45 37044ft 468kts
30-Dec-16 16:17 36.829743 -114.225056 27 37057ft 464kts
30-Dec-16 16:18 36.922510 -114.154293 28 37054ft 464kts
30-Dec-16 16:19 37.013256 -114.083902 27 37056ft 463kts
30-Dec-16 16:20 37.101024 -114.015655 26 37056ft 460kts
30-Dec-16 16:21 37.189891 -113.946372 26 37046ft 459kts
30-Dec-16 16:22 37.280264 -113.875718 26 37057ft 460kts
30-Dec-16 16:23 37.370569 -113.804898 26 37050ft 459kts
30-Dec-16 16:24 37.463774 -113.731609 26 37055ft 459kts
30-Dec-16 16:25 37.557568 -113.657630 26 37042ft 459kts
30-Dec-16 16:26 37.656240 -113.579554 26 37029ft 459kts
30-Dec-16 16:27 37.758490 -113.498393 26 37019ft 460kts
30-Dec-16 16:28 37.861774 -113.416141 26 37018ft 459kts
30-Dec-16 16:29 37.962043 -113.337349 26 37008ft 460kts
30-Dec-16 16:30 38.064562 -113.255150 27 37017ft 461kts
30-Dec-16 16:31 38.161026 -113.177190 26 37013ft 461kts
30-Dec-16 16:32 38.260573 -113.096500 27 37010ft 461kts
30-Dec-16 16:33 38.356424 -113.018573 25 37010ft 460kts
30-Dec-16 16:34 38.461342 -112.959158 15 37013ft 451kts
30-Dec-16 16:35 38.569338 -112.901785 15 37010ft 449kts
30-Dec-16 16:36 38.676037 -112.844680 15 37010ft 448kts
30-Dec-16 16:37 38.783522 -112.786971 14 37006ft 447kts
30-Dec-16 16:38 38.892758 -112.727335 15 37003ft 449kts
30-Dec-16 16:39 39.005293 -112.665969 14 37009ft 436kts
30-Dec-16 16:40 39.107537 -112.610580 14 36295ft 438kts
30-Dec-16 16:41 39.174730 -112.574085 15 34167ft 452kts
30-Dec-16 16:42 39.289810 -112.511262 15 30787ft 451kts
30-Dec-16 16:43 39.404274 -112.447019 17 27487ft 452kts
30-Dec-16 16:44 39.515571 -112.383064 18 25146ft 432kts
30-Dec-16 16:45 39.619130 -112.323382 19 22858ft 416kts
30-Dec-16 16:46 39.720531 -112.263842 19 20575ft 388kts
30-Dec-16 16:47 39.814866 -112.209116 20 18470ft 374kts
30-Dec-16 16:48 39.907754 -112.155086 20 16447ft 363kts
30-Dec-16 16:48 39.982481 -112.111594 20 15003ft 347kts
30-Dec-16 16:50 40.079767 -112.054632 21 14853ft 304kts
30-Dec-16 16:51 40.158229 -112.007348 22 12226ft 328kts
30-Dec-16 16:52 40.241682 -111.956745 22 11274ft 329kts
30-Dec-16 16:53 40.325563 -111.936217 1 10936ft 302kts
30-Dec-16 16:53 40.390756 -111.930171 355 10927ft 267kts
30-Dec-16 16:54 40.462788 -111.937755 353 10763ft 261kts
30-Dec-16 16:55 40.530357 -111.944844 352 9098ft 228kts
30-Dec-16 16:56 40.584227 -111.950960 351 8042ft 174kts
30-Dec-16 16:57 40.629794 -111.956333 351 7173ft 164kts
30-Dec-16 16:58 40.669130 -111.960851 351 6334ft 143kts
30-Dec-16 16:59 40.706268 -111.965224 351 5601ft 141kts
30-Dec-16 17:00 40.744590 -111.969663 351 4854ft 140kts
30-Dec-16 17:01 40.782299 -111.974074 356 4227ft 127kts
30-Dec-16 17:02 40.796917 -111.976408 267 4223ft 7kts
30-Dec-16 17:03 40.795080 -111.977686 175 4223ft 11kts
30-Dec-16 17:04 40.790882 -111.977195 175 4222ft 18kts
30-Dec-16 17:06 40.786845 -111.976719 176 4223ft 11kts
30-Dec-16 17:07 40.786929 -111.978113 292 4223ft 0kts
30-Dec-16 17:08 40.786930 -111.978116 291 4223ft 0kts

Navigation Log

Ident Type
Flight plan parsing failed, navigation log unavailable